createdAt,value
2023-02-05T00:01:24.210Z,9.47
2023-02-05T00:03:51.005Z,8.77
2023-02-05T00:06:17.868Z,8.67
2023-02-05T00:08:44.640Z,8.17
2023-02-05T00:11:11.309Z,9.17
2023-02-05T00:13:39.720Z,8.60
2023-02-05T00:16:26.437Z,8.70
2023-02-05T00:18:59.340Z,8.90
2023-02-05T00:21:46.317Z,8.53
2023-02-05T00:24:25.362Z,9.03
2023-02-05T00:27:11.947Z,8.60
2023-02-05T00:29:39.014Z,9.13
2023-02-05T00:32:05.814Z,9.57
2023-02-05T00:34:32.541Z,9.70
2023-02-05T00:36:59.293Z,10.03
2023-02-05T00:39:25.960Z,9.40
2023-02-05T00:41:53.012Z,9.33
2023-02-05T00:44:19.709Z,9.57
2023-02-05T00:46:46.382Z,10.10
2023-02-05T00:49:13.074Z,9.93
2023-02-05T00:51:39.766Z,9.97
2023-02-05T00:54:06.483Z,9.87
2023-02-05T00:56:33.169Z,9.83
2023-02-05T00:59:00.451Z,9.77
2023-02-05T01:01:27.130Z,10.40
2023-02-05T01:03:53.796Z,10.93
2023-02-05T01:06:21.126Z,9.87
2023-02-05T01:08:47.828Z,9.90
2023-02-05T01:11:15.275Z,9.60
2023-02-05T01:13:42.141Z,9.43
2023-02-05T01:16:10.662Z,9.17
2023-02-05T01:18:37.557Z,10.00
2023-02-05T01:21:04.411Z,10.07
2023-02-05T01:23:31.338Z,9.50
2023-02-05T01:25:58.189Z,10.83
2023-02-05T01:28:24.957Z,9.40
2023-02-05T01:30:52.134Z,10.17
2023-02-05T01:33:19.769Z,8.50
2023-02-05T01:35:46.578Z,9.10
2023-02-05T01:38:14.339Z,9.23
2023-02-05T01:40:41.726Z,9.40
2023-02-05T01:43:16.184Z,9.00
2023-02-05T01:45:58.030Z,8.47
2023-02-05T01:48:32.264Z,8.40
2023-02-05T01:51:04.110Z,7.50
2023-02-05T01:53:35.102Z,8.20
2023-02-05T01:56:08.042Z,8.40
2023-02-05T01:58:40.730Z,8.00
2023-02-05T02:01:07.581Z,8.70
2023-02-05T02:03:34.324Z,8.00
2023-02-05T02:06:02.463Z,7.63
2023-02-05T02:08:29.733Z,7.87
2023-02-05T02:10:58.274Z,8.07
2023-02-05T02:13:28.598Z,8.37
2023-02-05T02:15:57.035Z,8.10
2023-02-05T02:18:26.413Z,8.20
2023-02-05T02:21:21.475Z,8.60
2023-02-05T02:24:12.194Z,9.03
2023-02-05T02:27:09.474Z,7.93
2023-02-05T02:30:01.859Z,8.07
2023-02-05T02:32:40.280Z,8.10
2023-02-05T02:35:25.953Z,8.70
2023-02-05T02:38:06.253Z,8.77
2023-02-05T02:40:42.776Z,8.37
2023-02-05T02:43:40.997Z,8.77
2023-02-05T02:46:22.528Z,9.27
2023-02-05T02:48:52.505Z,9.00
2023-02-05T02:51:21.556Z,8.80
2023-02-05T02:53:54.621Z,8.67
2023-02-05T02:56:23.583Z,8.73
2023-02-05T02:58:54.786Z,8.83
2023-02-05T03:01:25.213Z,8.80
2023-02-05T03:03:58.677Z,8.10
2023-02-05T03:06:27.087Z,8.27
2023-02-05T03:09:10.006Z,7.90
2023-02-05T03:11:36.869Z,8.37
2023-02-05T03:14:03.838Z,8.27
2023-02-05T03:16:31.184Z,8.73
2023-02-05T03:18:58.552Z,8.17
2023-02-05T03:21:30.552Z,8.27
2023-02-05T03:23:57.284Z,8.23
2023-02-05T03:26:38.364Z,8.93
2023-02-05T03:29:11.860Z,7.70
2023-02-05T03:32:13.767Z,8.57
2023-02-05T03:35:12.788Z,8.20
2023-02-05T03:37:51.345Z,7.73
2023-02-05T03:40:24.003Z,8.70
2023-02-05T03:42:53.557Z,8.33
2023-02-05T03:45:37.668Z,8.37
2023-02-05T03:48:36.931Z,8.77
2023-02-05T03:51:25.363Z,8.13
2023-02-05T03:54:01.146Z,8.70
2023-02-05T03:56:37.414Z,8.80
2023-02-05T03:59:04.495Z,8.50
2023-02-05T04:01:32.048Z,8.63
2023-02-05T04:03:58.753Z,8.20
2023-02-05T04:06:25.514Z,8.00
2023-02-05T04:08:52.198Z,8.00
2023-02-05T04:11:18.842Z,8.17
2023-02-05T04:13:45.582Z,7.63
2023-02-05T04:16:12.305Z,7.47
2023-02-05T04:18:39.103Z,7.47
2023-02-05T04:21:05.900Z,7.73
2023-02-05T04:23:32.702Z,7.40
2023-02-05T04:26:19.353Z,7.00
2023-02-05T04:29:06.054Z,6.90
2023-02-05T04:31:52.732Z,6.50
2023-02-05T04:34:32.715Z,7.03
2023-02-05T04:37:00.060Z,6.53
2023-02-05T04:39:26.930Z,6.37
2023-02-05T04:41:53.605Z,6.50
2023-02-05T04:44:20.531Z,6.73
2023-02-05T04:46:47.223Z,6.60
2023-02-05T04:49:13.921Z,7.37
2023-02-05T04:51:40.840Z,6.67
2023-02-05T04:54:07.565Z,6.50
2023-02-05T04:56:34.305Z,6.20
2023-02-05T04:59:01.086Z,7.10
2023-02-05T05:01:27.943Z,6.20
2023-02-05T05:03:54.584Z,6.53
2023-02-05T05:06:21.574Z,6.40
2023-02-05T05:08:48.497Z,6.30
2023-02-05T05:11:17.732Z,6.60
2023-02-05T05:13:45.096Z,7.00
2023-02-05T05:16:13.011Z,6.00
2023-02-05T05:18:41.326Z,6.00
2023-02-05T05:21:08.452Z,6.00
2023-02-05T05:23:36.825Z,6.40
2023-02-05T05:26:09.317Z,6.30
2023-02-05T05:28:37.095Z,6.40
2023-02-05T05:31:19.571Z,5.80
2023-02-05T05:33:46.610Z,5.30
2023-02-05T05:36:14.504Z,5.17
2023-02-05T05:38:41.267Z,5.53
2023-02-05T05:41:26.877Z,5.10
2023-02-05T05:43:54.873Z,5.40
2023-02-05T05:46:24.958Z,5.27
2023-02-05T05:48:56.779Z,5.10
2023-02-05T05:51:25.855Z,5.60
2023-02-05T05:53:53.123Z,5.00
2023-02-05T05:56:20.665Z,5.47
2023-02-05T05:58:48.184Z,7.93
2023-02-05T06:01:16.555Z,5.47
2023-02-05T06:03:43.179Z,5.60
2023-02-05T06:06:12.001Z,4.60
2023-02-05T06:08:39.006Z,4.97
2023-02-05T06:11:05.686Z,4.60
2023-02-05T06:13:32.481Z,4.40
2023-02-05T06:15:59.223Z,4.63
2023-02-05T06:18:25.922Z,4.70
2023-02-05T06:20:52.637Z,3.93
2023-02-05T06:23:19.460Z,4.30
2023-02-05T06:25:46.152Z,4.60
2023-02-05T06:28:13.024Z,5.27
2023-02-05T06:30:39.882Z,4.80
2023-02-05T06:33:06.709Z,4.60
2023-02-05T06:35:33.719Z,4.10
2023-02-05T06:38:00.694Z,4.53
2023-02-05T06:40:28.204Z,4.53
2023-02-05T06:42:55.264Z,4.40
2023-02-05T06:45:22.095Z,4.27
2023-02-05T06:47:48.932Z,4.97
2023-02-05T06:50:16.178Z,5.13
2023-02-05T06:52:42.898Z,4.40
2023-02-05T06:55:09.741Z,4.80
2023-02-05T06:57:37.214Z,5.00
2023-02-05T07:00:06.059Z,5.17
2023-02-05T07:02:33.354Z,4.60
2023-02-05T07:05:00.125Z,5.03
2023-02-05T07:07:26.980Z,4.60
2023-02-05T07:09:53.795Z,4.90
2023-02-05T07:12:20.737Z,5.27
2023-02-05T07:14:47.606Z,5.00
2023-02-05T07:17:14.239Z,4.97
2023-02-05T07:19:41.065Z,5.53
2023-02-05T07:22:07.799Z,5.23
2023-02-05T07:24:34.473Z,5.10
2023-02-05T07:27:01.392Z,5.00
2023-02-05T07:29:28.534Z,5.30
2023-02-05T07:31:55.232Z,5.37
2023-02-05T07:34:22.319Z,5.77
2023-02-05T07:36:52.721Z,5.27
2023-02-05T07:39:19.600Z,5.63
2023-02-05T07:41:46.546Z,5.30
2023-02-05T07:44:13.318Z,6.37
2023-02-05T07:46:40.442Z,7.00
2023-02-05T07:49:07.183Z,6.87
2023-02-05T07:51:35.345Z,5.87
2023-02-05T07:54:07.560Z,5.70
2023-02-05T07:56:34.324Z,5.60
2023-02-05T07:59:01.547Z,6.47
2023-02-05T08:01:28.289Z,6.10
2023-02-05T08:03:55.164Z,6.60
2023-02-05T08:06:21.889Z,6.80
2023-02-05T08:08:48.704Z,6.37
2023-02-05T08:11:17.608Z,5.90
2023-02-05T08:13:45.076Z,6.93
2023-02-05T08:16:12.712Z,6.33
2023-02-05T08:18:39.508Z,6.57
2023-02-05T08:21:06.175Z,6.77
2023-02-05T08:23:33.173Z,6.40
2023-02-05T08:26:00.821Z,6.50
2023-02-05T08:28:28.159Z,7.33
2023-02-05T08:30:56.646Z,6.47
2023-02-05T08:33:23.858Z,6.73
2023-02-05T08:35:51.100Z,7.03
2023-02-05T08:38:18.015Z,7.37
2023-02-05T08:40:44.913Z,7.47
2023-02-05T08:43:12.315Z,9.33
2023-02-05T08:45:39.259Z,8.10
2023-02-05T08:48:06.095Z,7.20
2023-02-05T08:50:32.854Z,6.97
2023-02-05T08:53:01.393Z,7.73
2023-02-05T08:55:28.132Z,8.00
2023-02-05T08:57:55.629Z,7.23
2023-02-05T09:00:22.385Z,7.43
2023-02-05T09:02:49.180Z,7.50
2023-02-05T09:05:15.917Z,8.27
2023-02-05T09:07:42.723Z,8.23
2023-02-05T09:10:11.815Z,7.97
2023-02-05T09:12:39.189Z,7.07
2023-02-05T09:15:07.823Z,8.00
2023-02-05T09:17:34.520Z,7.67
2023-02-05T09:20:01.312Z,8.10
2023-02-05T09:22:28.088Z,8.97
2023-02-05T09:24:54.725Z,8.47
2023-02-05T09:27:21.417Z,8.33
2023-02-05T09:29:48.143Z,8.67
2023-02-05T09:32:14.781Z,8.93
2023-02-05T09:34:41.508Z,9.80
2023-02-05T09:37:08.306Z,7.97
2023-02-05T09:40:18.434Z,9.47
2023-02-05T09:42:30.679Z,8.97
2023-02-05T09:45:15.996Z,8.37
2023-02-05T09:48:08.563Z,9.13
2023-02-05T09:50:35.585Z,8.47
2023-02-05T09:53:06.018Z,9.37
2023-02-05T09:55:44.818Z,9.40
2023-02-05T09:58:26.624Z,9.80
2023-02-05T10:01:06.561Z,8.53
2023-02-05T10:03:49.853Z,8.50
2023-02-05T10:06:37.937Z,9.20
2023-02-05T10:09:16.694Z,8.97
2023-02-05T10:11:54.484Z,8.60
2023-02-05T10:14:36.727Z,9.93
2023-02-05T10:17:44.634Z,9.30
2023-02-05T10:20:45.331Z,9.50
2023-02-05T10:23:25.684Z,9.30
2023-02-05T10:25:54.225Z,9.53
2023-02-05T10:28:35.382Z,9.37
2023-02-05T10:31:36.719Z,8.77
2023-02-05T10:34:41.092Z,9.23
2023-02-05T10:37:18.233Z,9.17
2023-02-05T10:39:46.206Z,11.17
2023-02-05T10:42:32.939Z,9.87
2023-02-05T10:45:26.195Z,9.80
2023-02-05T10:47:59.051Z,8.40
2023-02-05T10:50:47.472Z,9.27
2023-02-05T10:53:19.080Z,9.83
2023-02-05T10:55:45.829Z,8.33
2023-02-05T10:58:31.658Z,8.30
2023-02-05T11:00:58.872Z,8.50
2023-02-05T11:03:25.755Z,9.73
2023-02-05T11:05:53.255Z,8.37
2023-02-05T11:08:44.223Z,8.97
2023-02-05T11:11:22.159Z,8.53
2023-02-05T11:14:04.907Z,9.73
2023-02-05T11:16:42.200Z,9.43
2023-02-05T11:19:29.199Z,8.80
2023-02-05T11:22:03.887Z,9.70
2023-02-05T11:24:30.517Z,9.10
2023-02-05T11:27:15.465Z,8.50
2023-02-05T11:29:42.893Z,9.27
2023-02-05T11:32:37.002Z,9.00
2023-02-05T11:35:22.364Z,9.93
2023-02-05T11:38:10.976Z,9.63
2023-02-05T11:40:38.312Z,9.43
2023-02-05T11:43:15.581Z,10.27
2023-02-05T11:45:49.766Z,10.37
2023-02-05T11:48:42.079Z,10.20
2023-02-05T11:51:12.569Z,10.20
2023-02-05T11:53:56.848Z,9.97
2023-02-05T11:56:25.615Z,11.20
2023-02-05T11:59:05.381Z,10.43
2023-02-05T12:01:36.243Z,10.63
2023-02-05T12:04:17.057Z,10.67
2023-02-05T12:06:55.284Z,10.90
2023-02-05T12:09:24.371Z,11.83
2023-02-05T12:12:01.049Z,10.97
2023-02-05T12:14:40.877Z,10.93
2023-02-05T12:17:20.922Z,10.60
2023-02-05T12:20:20.570Z,11.43
2023-02-05T12:23:34.754Z,11.03
2023-02-05T12:26:19.878Z,11.30
2023-02-05T12:28:55.653Z,11.90
2023-02-05T12:31:37.885Z,10.80
2023-02-05T12:34:18.927Z,12.53
2023-02-05T12:36:59.140Z,11.50
2023-02-05T12:39:46.542Z,12.93
2023-02-05T12:42:33.373Z,12.93
2023-02-05T12:45:21.539Z,11.90
2023-02-05T12:48:07.148Z,11.77
2023-02-05T12:50:48.288Z,12.53
2023-02-05T12:53:30.495Z,13.73
2023-02-05T12:56:25.068Z,13.20
2023-02-05T12:59:00.342Z,12.40
2023-02-05T13:01:49.460Z,12.23
2023-02-05T13:04:25.174Z,12.60
2023-02-05T13:06:59.772Z,12.97
2023-02-05T13:09:34.350Z,12.43
2023-02-05T13:12:09.044Z,13.03
2023-02-05T13:14:43.500Z,12.47
2023-02-05T13:17:19.687Z,13.20
2023-02-05T13:19:53.232Z,12.57
2023-02-05T13:22:47.340Z,13.83
2023-02-05T13:26:07.779Z,13.17
2023-02-05T13:28:57.039Z,14.50
2023-02-05T13:31:38.617Z,14.40
2023-02-05T13:34:08.242Z,14.43
2023-02-05T13:36:53.257Z,14.97
2023-02-05T13:39:50.764Z,14.47
2023-02-05T13:42:20.398Z,14.67
2023-02-05T13:44:56.425Z,16.67
2023-02-05T13:47:46.868Z,16.80
2023-02-05T13:50:34.800Z,16.17
2023-02-05T13:53:32.792Z,16.10
2023-02-05T13:56:20.376Z,15.13
2023-02-05T13:58:57.816Z,17.07
2023-02-05T14:01:29.790Z,18.03
2023-02-05T14:04:17.191Z,19.43
2023-02-05T14:06:55.584Z,18.57
2023-02-05T14:09:31.300Z,21.13
2023-02-05T14:12:00.464Z,20.93
2023-02-05T14:14:38.533Z,19.97
2023-02-05T14:17:33.151Z,20.53
2023-02-05T14:20:05.976Z,21.50
2023-02-05T14:22:44.948Z,21.97
2023-02-05T14:25:37.011Z,21.47
2023-02-05T14:28:16.118Z,22.10
2023-02-05T14:30:47.811Z,22.73
2023-02-05T14:33:37.398Z,23.03
2023-02-05T14:36:22.944Z,22.33
2023-02-05T14:39:19.137Z,23.00
2023-02-05T14:41:53.454Z,23.57
2023-02-05T14:44:24.846Z,21.37
2023-02-05T14:47:26.015Z,21.20
2023-02-05T14:50:03.872Z,20.47
2023-02-05T14:52:37.486Z,21.00
2023-02-05T14:55:22.084Z,20.03
2023-02-05T14:57:55.650Z,20.13
2023-02-05T15:00:48.805Z,20.37
2023-02-05T15:03:21.784Z,20.27
2023-02-05T15:05:56.988Z,21.80
2023-02-05T15:08:37.867Z,19.27
2023-02-05T15:11:26.463Z,19.97
2023-02-05T15:14:21.398Z,17.17
2023-02-05T15:17:06.481Z,18.90
2023-02-05T15:19:46.052Z,18.60
2023-02-05T15:22:20.200Z,19.60
2023-02-05T15:24:48.496Z,18.97
2023-02-05T15:27:21.707Z,19.10
2023-02-05T15:29:57.270Z,19.43
2023-02-05T15:32:36.169Z,20.50
2023-02-05T15:35:07.305Z,20.83
2023-02-05T15:37:43.871Z,19.43
2023-02-05T15:40:24.777Z,18.73
2023-02-05T15:42:59.665Z,19.07
2023-02-05T15:45:27.938Z,20.27
2023-02-05T15:48:25.439Z,19.60
2023-02-05T15:51:15.307Z,20.57
2023-02-05T15:53:51.893Z,19.83
2023-02-05T15:56:27.156Z,19.87
2023-02-05T15:58:58.516Z,20.63
2023-02-05T16:01:35.843Z,19.43
2023-02-05T16:04:15.814Z,21.03
2023-02-05T16:06:42.533Z,21.43
2023-02-05T16:09:17.254Z,20.43
2023-02-05T16:11:45.084Z,20.07
2023-02-05T16:14:19.614Z,21.30
2023-02-05T16:17:06.960Z,21.27
2023-02-05T16:19:42.646Z,20.10
2023-02-05T16:22:44.841Z,19.63
2023-02-05T16:25:29.137Z,20.70
2023-02-05T16:27:57.995Z,20.23
2023-02-05T16:30:43.083Z,21.00
2023-02-05T16:33:38.242Z,19.40
2023-02-05T16:36:12.996Z,20.67
2023-02-05T16:38:39.975Z,20.83
2023-02-05T16:41:23.691Z,19.70
2023-02-05T16:43:52.183Z,20.10
2023-02-05T16:46:21.939Z,19.53
2023-02-05T16:48:53.420Z,20.77
2023-02-05T16:51:32.718Z,20.20
2023-02-05T16:54:01.356Z,18.73
2023-02-05T16:56:33.178Z,20.20
2023-02-05T16:59:01.983Z,20.07
2023-02-05T17:01:39.045Z,21.27
2023-02-05T17:04:07.285Z,19.43
2023-02-05T17:06:36.698Z,21.20
2023-02-05T17:09:05.667Z,22.10
2023-02-05T17:11:38.155Z,22.90
2023-02-05T17:14:32.827Z,24.90
2023-02-05T17:17:00.934Z,23.63
2023-02-05T17:19:30.824Z,24.30
2023-02-05T17:22:15.806Z,24.87
2023-02-05T17:24:44.318Z,26.47
2023-02-05T17:27:28.580Z,24.23
2023-02-05T17:29:56.408Z,25.47
2023-02-05T17:32:23.838Z,29.43
2023-02-05T17:34:50.574Z,27.87
2023-02-05T17:37:17.305Z,29.70
2023-02-05T17:39:44.242Z,30.13
2023-02-05T17:42:21.210Z,29.90
2023-02-05T17:44:48.432Z,28.70
2023-02-05T17:47:15.587Z,29.87
2023-02-05T17:49:42.437Z,28.00
2023-02-05T17:52:10.475Z,30.67
2023-02-05T17:54:37.435Z,30.70
2023-02-05T17:57:24.467Z,28.73
2023-02-05T17:59:51.177Z,28.80
2023-02-05T18:02:18.779Z,28.47
2023-02-05T18:04:45.713Z,29.47
2023-02-05T18:07:39.578Z,28.70
2023-02-05T18:10:07.445Z,29.33
2023-02-05T18:12:34.314Z,28.77
2023-02-05T18:15:01.149Z,27.70
2023-02-05T18:17:27.978Z,27.93
2023-02-05T18:19:54.752Z,29.97
2023-02-05T18:22:21.714Z,27.37
2023-02-05T18:24:48.421Z,27.93
2023-02-05T18:27:15.171Z,28.83
2023-02-05T18:29:43.767Z,28.77
2023-02-05T18:32:10.828Z,28.13
2023-02-05T18:34:38.125Z,30.77
2023-02-05T18:37:04.753Z,28.17
2023-02-05T18:39:32.095Z,29.77
2023-02-05T18:41:59.012Z,28.50
2023-02-05T18:44:27.013Z,28.77
2023-02-05T18:46:54.320Z,27.53
2023-02-05T18:49:21.052Z,28.97
2023-02-05T18:51:47.857Z,27.40
2023-02-05T18:54:14.612Z,29.43
2023-02-05T18:56:41.392Z,29.17
2023-02-05T18:59:13.791Z,26.87
2023-02-05T19:01:41.834Z,28.20
2023-02-05T19:04:15.165Z,28.47
2023-02-05T19:06:44.695Z,27.40
2023-02-05T19:09:11.857Z,28.70
2023-02-05T19:11:41.662Z,25.77
2023-02-05T19:14:11.928Z,28.20
2023-02-05T19:16:40.109Z,26.93
2023-02-05T19:19:07.310Z,26.83
2023-02-05T19:21:34.656Z,26.80
2023-02-05T19:24:05.663Z,29.00
2023-02-05T19:26:34.038Z,28.00
2023-02-05T19:29:04.793Z,29.83
2023-02-05T19:31:34.184Z,29.00
2023-02-05T19:34:01.438Z,28.10
2023-02-05T19:36:29.233Z,29.40
2023-02-05T19:38:56.100Z,27.57
2023-02-05T19:41:26.349Z,28.00
2023-02-05T19:43:58.496Z,27.83
2023-02-05T19:46:28.031Z,28.40
2023-02-05T19:48:56.014Z,29.50
2023-02-05T19:51:22.731Z,29.10
2023-02-05T19:53:49.675Z,28.97
2023-02-05T19:56:19.847Z,29.80
2023-02-05T19:58:49.293Z,26.00
2023-02-05T20:01:29.831Z,28.83
2023-02-05T20:04:05.836Z,28.53
2023-02-05T20:06:32.578Z,26.17
2023-02-05T20:09:01.448Z,25.40
2023-02-05T20:11:30.545Z,25.23
2023-02-05T20:14:01.721Z,23.30
2023-02-05T20:16:28.945Z,23.83
2023-02-05T20:18:58.300Z,22.70
2023-02-05T20:21:26.735Z,23.50
2023-02-05T20:23:54.071Z,23.33
2023-02-05T20:26:22.043Z,23.97
2023-02-05T20:29:11.356Z,23.23
2023-02-05T20:31:43.599Z,24.60
2023-02-05T20:34:18.737Z,25.70
2023-02-05T20:36:54.472Z,26.40
2023-02-05T20:39:23.812Z,24.73
2023-02-05T20:41:52.039Z,24.23
2023-02-05T20:44:19.782Z,23.83
2023-02-05T20:46:46.865Z,24.63
2023-02-05T20:49:13.782Z,23.27
2023-02-05T20:51:41.061Z,21.20
2023-02-05T20:54:07.999Z,23.77
2023-02-05T20:56:35.634Z,23.90
2023-02-05T20:59:05.177Z,24.07
2023-02-05T21:01:33.789Z,23.13
2023-02-05T21:04:03.916Z,24.20
2023-02-05T21:06:33.150Z,23.03
2023-02-05T21:08:59.979Z,24.13
2023-02-05T21:11:27.931Z,23.23
2023-02-05T21:13:55.241Z,23.43
2023-02-05T21:16:23.650Z,23.97
2023-02-05T21:18:52.022Z,23.20
2023-02-05T21:21:22.783Z,23.50
2023-02-05T21:23:53.683Z,23.70
2023-02-05T21:26:23.850Z,22.00
2023-02-05T21:28:55.295Z,22.50
2023-02-05T21:31:23.351Z,22.53
2023-02-05T21:33:50.435Z,21.90
2023-02-05T21:36:19.192Z,23.00
2023-02-05T21:38:46.011Z,21.93
2023-02-05T21:41:17.888Z,21.90
2023-02-05T21:43:56.194Z,22.67
2023-02-05T21:46:24.720Z,22.57
2023-02-05T21:48:54.913Z,22.33
2023-02-05T21:51:23.680Z,22.93
2023-02-05T21:53:59.924Z,21.50
2023-02-05T21:56:29.942Z,22.00
2023-02-05T21:58:58.157Z,21.50
2023-02-05T22:01:28.083Z,23.17
2023-02-05T22:03:57.688Z,22.80
2023-02-05T22:06:26.614Z,20.67
2023-02-05T22:08:55.150Z,21.33
2023-02-05T22:11:22.873Z,20.57
2023-02-05T22:13:53.000Z,20.07
2023-02-05T22:16:22.717Z,22.47
2023-02-05T22:18:49.956Z,20.37
2023-02-05T22:21:20.615Z,21.00
2023-02-05T22:23:49.522Z,21.00
2023-02-05T22:26:18.968Z,21.13
2023-02-05T22:28:45.994Z,21.07
2023-02-05T22:31:15.642Z,21.27
2023-02-05T22:33:44.403Z,20.10
2023-02-05T22:36:13.438Z,20.87
2023-02-05T22:38:41.665Z,22.57
2023-02-05T22:41:10.533Z,21.10
2023-02-05T22:43:37.703Z,20.37
2023-02-05T22:46:09.793Z,21.80
2023-02-05T22:48:38.761Z,20.30
2023-02-05T22:51:08.538Z,20.37
2023-02-05T22:53:35.338Z,20.63
2023-02-05T22:56:08.096Z,19.13
2023-02-05T22:58:35.152Z,19.80
2023-02-05T23:01:33.229Z,19.50
2023-02-05T23:04:02.126Z,19.47
2023-02-05T23:06:31.966Z,20.30
2023-02-05T23:09:05.342Z,20.43
2023-02-05T23:11:33.716Z,19.80
2023-02-05T23:14:01.553Z,20.80
2023-02-05T23:16:31.482Z,21.10
2023-02-05T23:19:01.591Z,22.23
2023-02-05T23:21:30.623Z,22.57
2023-02-05T23:23:57.348Z,23.17
2023-02-05T23:26:26.992Z,22.17
2023-02-05T23:28:55.766Z,21.87
2023-02-05T23:31:23.726Z,23.80
2023-02-05T23:33:51.718Z,33.00
2023-02-05T23:36:18.684Z,25.00
2023-02-05T23:38:45.678Z,27.00
2023-02-05T23:41:13.071Z,26.47
2023-02-05T23:43:40.411Z,24.57
2023-02-05T23:46:07.950Z,26.70
2023-02-05T23:48:35.172Z,26.20
2023-02-05T23:51:01.826Z,30.37
2023-02-05T23:53:28.551Z,31.63
2023-02-05T23:55:56.057Z,42.83
2023-02-05T23:58:25.928Z,38.10
